createdAt,value
2018-09-05T00:00:05.760Z,82.02
2018-09-05T00:01:05.763Z,81.93
2018-09-05T00:02:05.766Z,81.16
2018-09-05T00:03:05.767Z,80.96
2018-09-05T00:04:05.771Z,81.06
2018-09-05T00:05:05.772Z,81.35
2018-09-05T00:06:05.775Z,81.35
2018-09-05T00:07:05.777Z,81.54
2018-09-05T00:08:05.781Z,81.35
2018-09-05T00:09:05.781Z,81.16
2018-09-05T00:10:05.784Z,81.45
2018-09-05T00:11:05.786Z,81.16
2018-09-05T00:12:05.789Z,81.25
2018-09-05T00:13:05.791Z,81.06
2018-09-05T00:14:05.795Z,81.35
2018-09-05T00:15:05.796Z,80.87
2018-09-05T00:16:05.799Z,80.58
2018-09-05T00:17:05.801Z,80.68
2018-09-05T00:18:05.802Z,80.77
2018-09-05T00:19:05.806Z,80.00
2018-09-05T00:20:05.808Z,80.29
2018-09-05T00:21:05.811Z,80.10
2018-09-05T00:22:05.813Z,80.38
2018-09-05T00:23:05.815Z,80.29
2018-09-05T00:24:05.817Z,80.00
2018-09-05T00:25:05.819Z,80.48
2018-09-05T00:26:05.824Z,80.68
2018-09-05T00:27:05.825Z,80.54
2018-09-05T00:28:05.825Z,80.96
2018-09-05T00:29:05.830Z,80.73
2018-09-05T00:30:05.831Z,80.73
2018-09-05T00:31:05.833Z,81.30
2018-09-05T00:32:05.836Z,81.12
2018-09-05T00:33:05.839Z,80.83
2018-09-05T00:34:05.842Z,80.83
2018-09-05T00:35:05.846Z,81.30
2018-09-05T00:36:05.846Z,81.21
2018-09-05T00:37:05.848Z,81.79
2018-09-05T00:38:05.850Z,82.08
2018-09-05T00:39:05.852Z,81.98
2018-09-05T00:40:05.854Z,82.65
2018-09-05T00:41:05.858Z,82.27
2018-09-05T00:42:05.860Z,83.00
2018-09-05T00:43:05.861Z,83.23
2018-09-05T00:44:05.864Z,83.67
2018-09-05T00:45:05.867Z,84.34
2018-09-05T00:46:05.872Z,84.34
2018-09-05T00:47:05.871Z,85.07
2018-09-05T00:48:05.875Z,85.07
2018-09-05T00:49:05.875Z,86.13
2018-09-05T00:50:05.881Z,85.94
2018-09-05T00:51:05.881Z,85.65
2018-09-05T00:52:05.882Z,86.22
2018-09-05T00:53:05.886Z,85.75
2018-09-05T00:54:05.887Z,85.75
2018-09-05T00:55:05.893Z,86.13
2018-09-05T00:56:05.891Z,86.71
2018-09-05T00:57:05.895Z,86.42
2018-09-05T00:58:05.896Z,86.42
2018-09-05T00:59:05.900Z,86.61
2018-09-05T01:00:05.899Z,86.61
2018-09-05T01:01:05.909Z,86.32
2018-09-05T01:02:05.905Z,86.13
2018-09-05T01:03:05.907Z,86.32
2018-09-05T01:04:05.911Z,86.13
2018-09-05T01:05:05.916Z,85.94
2018-09-05T01:06:05.915Z,86.42
2018-09-05T01:07:05.916Z,86.71
2018-09-05T01:08:05.920Z,86.80
2018-09-05T01:09:05.921Z,86.99
2018-09-05T01:10:05.926Z,87.19
2018-09-05T01:11:05.924Z,86.99
2018-09-05T01:12:05.927Z,87.09
2018-09-05T01:13:05.928Z,86.99
2018-09-05T01:14:05.931Z,86.99
2018-09-05T01:15:05.937Z,87.67
2018-09-05T01:16:05.934Z,87.92
2018-09-05T01:17:05.936Z,87.67
2018-09-05T01:18:05.940Z,86.90
2018-09-05T01:19:05.939Z,86.90
2018-09-05T01:20:05.944Z,87.19
2018-09-05T01:21:05.943Z,86.61
2018-09-05T01:22:05.948Z,86.52
2018-09-05T01:23:05.947Z,86.99
2018-09-05T01:24:05.951Z,87.09
2018-09-05T01:25:05.952Z,87.29
2018-09-05T01:26:05.955Z,87.62
2018-09-05T01:27:05.955Z,87.34
2018-09-05T01:28:05.958Z,87.53
2018-09-05T01:29:05.960Z,87.62
2018-09-05T01:30:05.962Z,88.20
2018-09-05T01:31:05.964Z,87.92
2018-09-05T01:32:05.968Z,87.92
2018-09-05T01:33:05.970Z,87.62
2018-09-05T01:34:05.972Z,87.62
2018-09-05T01:35:05.970Z,87.82
2018-09-05T01:36:05.973Z,88.20
2018-09-05T01:37:05.975Z,88.10
2018-09-05T01:38:05.978Z,88.30
2018-09-05T01:39:05.977Z,88.59
2018-09-05T01:40:05.980Z,88.49
2018-09-05T01:41:05.983Z,88.78
2018-09-05T01:42:05.985Z,88.87
2018-09-05T01:43:05.987Z,88.97
2018-09-05T01:44:05.989Z,88.68
2018-09-05T01:45:05.989Z,88.78
2018-09-05T01:46:05.993Z,89.36
2018-09-05T01:47:05.992Z,88.78
2018-09-05T01:48:05.996Z,88.78
2018-09-05T01:49:05.997Z,88.97
2018-09-05T01:50:05.999Z,88.97
2018-09-05T01:51:06.001Z,88.97
2018-09-05T01:52:06.003Z,89.16
2018-09-05T01:53:06.005Z,88.87
2018-09-05T01:54:06.007Z,88.73
2018-09-05T01:55:06.008Z,89.74
2018-09-05T01:56:06.012Z,89.83
2018-09-05T01:57:06.012Z,90.27
2018-09-05T01:58:06.015Z,90.46
2018-09-05T01:59:06.014Z,91.04
2018-09-05T02:00:06.018Z,90.37
2018-09-05T02:01:06.019Z,90.94
2018-09-05T02:02:06.021Z,91.61
2018-09-05T02:03:06.021Z,91.81
2018-09-05T02:04:06.023Z,92.19
2018-09-05T02:05:06.025Z,91.33
2018-09-05T02:06:06.029Z,91.23
2018-09-05T02:07:06.027Z,91.33
2018-09-05T02:08:06.031Z,91.61
2018-09-05T02:09:06.032Z,91.23
2018-09-05T02:10:06.034Z,91.13
2018-09-05T02:11:06.035Z,92.33
2018-09-05T02:12:06.037Z,92.14
2018-09-05T02:13:06.038Z,92.63
2018-09-05T02:14:06.043Z,92.72
2018-09-05T02:15:06.041Z,93.10
2018-09-05T02:16:06.045Z,93.01
2018-09-05T02:17:06.045Z,92.91
2018-09-05T02:18:06.049Z,92.19
2018-09-05T02:19:06.049Z,91.90
2018-09-05T02:20:06.051Z,91.81
2018-09-05T02:21:06.051Z,91.23
2018-09-05T02:22:06.054Z,91.42
2018-09-05T02:23:06.056Z,92.29
2018-09-05T02:24:06.056Z,92.24
2018-09-05T02:25:06.061Z,92.63
2018-09-05T02:26:06.060Z,93.59
2018-09-05T02:27:06.061Z,93.77
2018-09-05T02:28:06.063Z,93.87
2018-09-05T02:29:06.065Z,93.49
2018-09-05T02:30:06.067Z,93.30
2018-09-05T02:31:06.066Z,93.01
2018-09-05T02:32:06.069Z,94.16
2018-09-05T02:33:06.070Z,94.16
2018-09-05T02:34:06.072Z,94.45
2018-09-05T02:35:06.072Z,93.87
2018-09-05T02:36:06.075Z,95.12
2018-09-05T02:37:06.076Z,94.26
2018-09-05T02:38:06.077Z,93.97
2018-09-05T02:39:06.079Z,93.87
2018-09-05T02:40:06.080Z,93.39
2018-09-05T02:41:06.085Z,93.39
2018-09-05T02:42:06.083Z,93.59
2018-09-05T02:43:06.085Z,94.83
2018-09-05T02:44:06.085Z,94.35
2018-09-05T02:45:06.088Z,94.07
2018-09-05T02:46:06.088Z,94.45
2018-09-05T02:47:06.090Z,93.97
2018-09-05T02:48:06.090Z,93.20
2018-09-05T02:49:06.092Z,94.64
2018-09-05T02:50:06.094Z,95.03
2018-09-05T02:51:06.094Z,95.26
2018-09-05T02:52:06.097Z,96.18
2018-09-05T02:53:06.097Z,96.99
2018-09-05T02:54:06.099Z,96.22
2018-09-05T02:55:06.099Z,96.51
2018-09-05T02:56:06.102Z,96.32
2018-09-05T02:57:06.103Z,96.70
2018-09-05T02:58:06.104Z,96.61
2018-09-05T02:59:06.104Z,97.38
2018-09-05T03:00:06.112Z,97.19
2018-09-05T03:01:06.110Z,96.89
2018-09-05T03:02:06.109Z,96.32
2018-09-05T03:03:06.111Z,96.18
2018-09-05T03:04:06.112Z,96.08
2018-09-05T03:05:06.115Z,95.65
2018-09-05T03:06:06.116Z,95.65
2018-09-05T03:07:06.115Z,96.42
2018-09-05T03:08:06.117Z,96.80
2018-09-05T03:09:06.118Z,96.80
2018-09-05T03:10:06.123Z,96.80
2018-09-05T03:11:06.121Z,97.47
2018-09-05T03:12:06.121Z,98.14
2018-09-05T03:13:06.123Z,98.33
2018-09-05T03:14:06.124Z,97.95
2018-09-05T03:15:06.125Z,98.53
2018-09-05T03:16:06.125Z,99.39
2018-09-05T03:17:06.127Z,98.62
2018-09-05T03:18:06.128Z,99.20
2018-09-05T03:19:06.129Z,99.20
2018-09-05T03:20:06.131Z,99.49
2018-09-05T03:21:06.132Z,99.29
2018-09-05T03:22:06.134Z,98.82
2018-09-05T03:23:06.133Z,99.01
2018-09-05T03:24:06.136Z,99.20
2018-09-05T03:25:06.136Z,99.49
2018-09-05T03:26:06.138Z,99.99
2018-09-05T03:27:06.137Z,99.96
2018-09-05T03:28:06.140Z,99.39
2018-09-05T03:29:06.140Z,98.91
2018-09-05T03:30:06.142Z,99.29
2018-09-05T03:31:06.143Z,99.77
2018-09-05T03:32:06.181Z,99.99
2018-09-05T03:33:06.215Z,99.99
2018-09-05T03:34:06.147Z,99.99
2018-09-05T03:35:06.148Z,99.29
2018-09-05T03:36:06.148Z,99.49
2018-09-05T03:37:06.148Z,99.20
2018-09-05T03:38:06.157Z,99.99
2018-09-05T03:39:06.152Z,99.99
2018-09-05T03:40:06.152Z,99.99
2018-09-05T03:41:06.153Z,99.99
2018-09-05T03:42:06.155Z,99.99
2018-09-05T03:43:06.156Z,99.99
2018-09-05T03:44:06.157Z,99.99
2018-09-05T03:45:06.157Z,99.99
2018-09-05T03:46:06.160Z,99.99
2018-09-05T03:47:06.162Z,99.99
2018-09-05T03:48:06.159Z,99.99
2018-09-05T03:49:06.161Z,99.99
2018-09-05T03:50:06.164Z,99.99
2018-09-05T03:51:06.162Z,99.29
2018-09-05T03:52:06.164Z,98.72
2018-09-05T03:53:06.164Z,98.53
2018-09-05T03:54:06.166Z,98.14
2018-09-05T03:55:06.167Z,97.47
2018-09-05T03:56:06.167Z,97.28
2018-09-05T03:57:06.168Z,97.66
2018-09-05T03:58:06.171Z,96.89
2018-09-05T03:59:06.170Z,97.38
2018-09-05T04:00:06.170Z,98.05
2018-09-05T04:01:06.173Z,98.24
2018-09-05T04:02:06.173Z,98.82
2018-09-05T04:03:06.176Z,99.10
2018-09-05T04:04:06.175Z,99.49
2018-09-05T04:05:06.240Z,98.53
2018-09-05T04:06:06.177Z,98.53
2018-09-05T04:07:06.175Z,97.76
2018-09-05T04:08:06.181Z,97.86
2018-09-05T04:09:06.179Z,97.47
2018-09-05T04:10:06.180Z,97.09
2018-09-05T04:11:06.179Z,96.99
2018-09-05T04:12:06.274Z,96.51
2018-09-05T04:13:06.181Z,96.80
2018-09-05T04:14:06.182Z,97.28
2018-09-05T04:15:06.182Z,96.99
2018-09-05T04:16:06.183Z,96.42
2018-09-05T04:17:06.184Z,96.42
2018-09-05T04:18:06.184Z,96.42
2018-09-05T04:19:06.186Z,96.51
2018-09-05T04:20:06.187Z,96.70
2018-09-05T04:21:06.189Z,96.70
2018-09-05T04:22:06.219Z,97.19
2018-09-05T04:23:06.188Z,96.89
2018-09-05T04:24:06.191Z,97.95
2018-09-05T04:25:06.189Z,97.86
2018-09-05T04:26:06.193Z,98.33
2018-09-05T04:27:06.191Z,98.14
2018-09-05T04:28:06.193Z,98.43
2018-09-05T04:29:06.194Z,99.10
2018-09-05T04:30:06.195Z,99.58
2018-09-05T04:31:06.195Z,99.99
2018-09-05T04:32:06.195Z,99.73
2018-09-05T04:33:06.197Z,99.99
2018-09-05T04:34:06.198Z,99.99
2018-09-05T04:35:06.197Z,98.91
2018-09-05T04:36:06.198Z,98.53
2018-09-05T04:37:06.200Z,98.05
2018-09-05T04:38:06.201Z,97.86
2018-09-05T04:39:06.201Z,98.14
2018-09-05T04:40:06.200Z,98.33
2018-09-05T04:41:06.202Z,98.05
2018-09-05T04:42:06.203Z,98.05
2018-09-05T04:43:06.202Z,98.33
2018-09-05T04:44:06.204Z,97.76
2018-09-05T04:45:06.253Z,98.62
2018-09-05T04:46:06.205Z,99.10
2018-09-05T04:47:06.204Z,99.01
2018-09-05T04:48:06.206Z,98.62
2018-09-05T04:49:06.206Z,98.72
2018-09-05T04:50:06.207Z,99.01
2018-09-05T04:51:06.208Z,99.99
2018-09-05T04:52:06.208Z,99.96
2018-09-05T04:53:06.208Z,99.99
2018-09-05T04:54:06.210Z,99.99
2018-09-05T04:55:06.216Z,99.99
2018-09-05T04:56:06.210Z,99.99
2018-09-05T04:57:06.212Z,99.99
2018-09-05T04:58:06.212Z,99.99
2018-09-05T04:59:06.214Z,99.99
2018-09-05T05:00:06.213Z,99.99
2018-09-05T05:01:06.216Z,99.99
2018-09-05T05:02:06.216Z,99.99
2018-09-05T05:03:06.216Z,99.99
2018-09-05T05:04:06.216Z,99.99
2018-09-05T05:05:06.217Z,99.99
2018-09-05T05:06:06.217Z,99.99
2018-09-05T05:07:06.215Z,99.99
2018-09-05T05:08:06.219Z,99.99
2018-09-05T05:09:06.219Z,99.99
2018-09-05T05:10:06.220Z,99.99
2018-09-05T05:11:06.219Z,99.99
2018-09-05T05:12:06.219Z,99.99
2018-09-05T05:13:06.221Z,99.99
2018-09-05T05:14:06.221Z,99.99
2018-09-05T05:15:06.223Z,99.99
2018-09-05T05:16:06.222Z,99.99
2018-09-05T05:17:06.223Z,99.99
2018-09-05T05:18:06.224Z,99.99
2018-09-05T05:19:06.225Z,99.99
2018-09-05T05:20:06.224Z,99.99
2018-09-05T05:21:06.225Z,99.99
2018-09-05T05:22:06.227Z,99.99
2018-09-05T05:23:06.227Z,99.99
2018-09-05T05:24:06.228Z,99.99
2018-09-05T05:25:06.227Z,99.99
2018-09-05T05:26:06.229Z,99.99
2018-09-05T05:27:06.229Z,99.99
2018-09-05T05:28:06.228Z,99.99
2018-09-05T05:29:06.229Z,99.99
2018-09-05T05:30:06.232Z,99.99
2018-09-05T05:31:06.230Z,99.99
2018-09-05T05:32:06.231Z,99.99
2018-09-05T05:33:06.233Z,99.99
2018-09-05T05:34:06.233Z,99.99
2018-09-05T05:35:06.234Z,99.99
2018-09-05T05:36:06.234Z,99.99
2018-09-05T05:37:06.234Z,99.99
2018-09-05T05:38:06.236Z,99.99
2018-09-05T05:39:06.236Z,99.99
2018-09-05T05:40:06.246Z,99.99
2018-09-05T05:41:06.238Z,99.99
2018-09-05T05:42:06.238Z,99.99
2018-09-05T05:43:06.244Z,99.99
2018-09-05T05:44:06.238Z,99.99
2018-09-05T05:45:06.240Z,99.99
2018-09-05T05:46:06.241Z,99.99
2018-09-05T05:47:06.240Z,99.68
2018-09-05T05:48:06.241Z,99.10
2018-09-05T05:49:06.241Z,98.58
2018-09-05T05:50:06.242Z,97.91
2018-09-05T05:51:06.242Z,96.85
2018-09-05T05:52:06.244Z,96.47
2018-09-05T05:53:06.244Z,95.79
2018-09-05T05:54:06.247Z,95.70
2018-09-05T05:55:06.275Z,95.41
2018-09-05T05:56:06.247Z,95.31
2018-09-05T05:57:06.248Z,95.50
2018-09-05T05:58:06.254Z,95.41
2018-09-05T05:59:06.250Z,95.60
2018-09-05T06:00:06.251Z,95.50
2018-09-05T06:01:06.281Z,94.78
2018-09-05T06:02:06.253Z,94.64
2018-09-05T06:03:06.254Z,94.45
2018-09-05T06:04:06.257Z,94.26
2018-09-05T06:05:06.255Z,93.92
2018-09-05T06:06:06.311Z,94.31
2018-09-05T06:07:06.260Z,94.21
2018-09-05T06:08:06.259Z,94.31
2018-09-05T06:09:06.260Z,94.40
2018-09-05T06:10:06.261Z,93.73
2018-09-05T06:11:06.261Z,93.44
2018-09-05T06:12:06.298Z,92.57
2018-09-05T06:13:06.266Z,91.90
2018-09-05T06:14:06.265Z,92.19
2018-09-05T06:15:06.268Z,91.42
2018-09-05T06:16:06.266Z,90.08
2018-09-05T06:17:06.269Z,90.03
2018-09-05T06:18:06.275Z,89.83
2018-09-05T06:19:06.274Z,89.74
2018-09-05T06:20:06.272Z,89.45
2018-09-05T06:21:06.349Z,88.97
2018-09-05T06:22:06.273Z,88.78
2018-09-05T06:23:06.274Z,88.78
2018-09-05T06:24:06.321Z,88.97
2018-09-05T06:25:06.279Z,88.97
2018-09-05T06:26:06.279Z,88.97
2018-09-05T06:27:06.280Z,88.78
2018-09-05T06:28:06.283Z,89.01
2018-09-05T06:29:06.283Z,89.16
2018-09-05T06:30:06.286Z,88.87
2018-09-05T06:31:06.411Z,88.73
2018-09-05T06:32:06.287Z,88.44
2018-09-05T06:33:06.288Z,88.06
2018-09-05T06:34:06.322Z,89.11
2018-09-05T06:35:06.294Z,88.06
2018-09-05T06:36:06.292Z,88.44
2018-09-05T06:37:06.294Z,88.15
2018-09-05T06:38:06.295Z,87.76
2018-09-05T06:39:06.341Z,86.52
2018-09-05T06:40:06.300Z,86.32
2018-09-05T06:41:06.300Z,87.04
2018-09-05T06:42:06.305Z,86.32
2018-09-05T06:43:06.303Z,86.56
2018-09-05T06:44:06.305Z,86.85
2018-09-05T06:45:06.408Z,85.88
2018-09-05T06:46:06.310Z,85.98
2018-09-05T06:47:06.311Z,86.65
2018-09-05T06:48:06.313Z,85.31
2018-09-05T06:49:06.314Z,85.40
2018-09-05T06:50:06.317Z,84.29
2018-09-05T06:51:06.317Z,84.34
2018-09-05T06:52:06.320Z,84.29
2018-09-05T06:53:06.322Z,84.48
2018-09-05T06:54:06.324Z,84.29
2018-09-05T06:55:06.325Z,84.10
2018-09-05T06:56:06.327Z,83.91
2018-09-05T06:57:06.334Z,83.91
2018-09-05T06:58:06.352Z,83.33
2018-09-05T06:59:06.333Z,83.42
2018-09-05T07:00:06.336Z,83.42
2018-09-05T07:01:06.338Z,83.66
2018-09-05T07:02:06.340Z,82.79
2018-09-05T07:03:06.343Z,82.60
2018-09-05T07:04:06.346Z,83.18
2018-09-05T07:05:06.348Z,83.28
2018-09-05T07:06:06.351Z,82.79
2018-09-05T07:07:06.415Z,82.89
2018-09-05T07:08:06.353Z,83.37
2018-09-05T07:09:06.360Z,82.89
2018-09-05T07:10:06.438Z,82.50
2018-09-05T07:11:06.361Z,82.50
2018-09-05T07:12:06.363Z,82.79
2018-09-05T07:13:06.367Z,82.70
2018-09-05T07:14:06.405Z,82.50
2018-09-05T07:15:06.371Z,82.54
2018-09-05T07:16:06.374Z,81.96
2018-09-05T07:17:06.376Z,81.68
2018-09-05T07:18:06.379Z,81.45
2018-09-05T07:19:06.385Z,82.21
2018-09-05T07:20:06.383Z,82.50
2018-09-05T07:21:06.407Z,82.41
2018-09-05T07:22:06.466Z,82.41
2018-09-05T07:23:06.389Z,82.31
2018-09-05T07:24:06.394Z,81.96
2018-09-05T07:25:06.425Z,81.77
2018-09-05T07:26:06.406Z,82.54
2018-09-05T07:27:06.400Z,81.77
2018-09-05T07:28:06.403Z,81.39
2018-09-05T07:29:06.407Z,80.62
2018-09-05T07:30:06.409Z,81.20
2018-09-05T07:31:06.413Z,80.85
2018-09-05T07:32:06.416Z,80.62
2018-09-05T07:33:06.425Z,80.27
2018-09-05T07:34:06.422Z,80.27
2018-09-05T07:35:06.426Z,80.27
2018-09-05T07:36:06.426Z,80.18
2018-09-05T07:37:06.427Z,80.37
2018-09-05T07:38:06.430Z,80.46
2018-09-05T07:39:06.436Z,80.37
2018-09-05T07:40:06.436Z,80.66
2018-09-05T07:41:06.439Z,80.76
2018-09-05T07:42:06.443Z,80.56
2018-09-05T07:43:06.445Z,80.56
2018-09-05T07:44:06.448Z,80.27
2018-09-05T07:45:06.450Z,80.37
2018-09-05T07:46:06.453Z,80.37
2018-09-05T07:47:06.456Z,80.46
2018-09-05T07:48:06.458Z,80.66
2018-09-05T07:49:06.463Z,80.02
2018-09-05T07:50:06.476Z,80.31
2018-09-05T07:51:06.474Z,79.83
2018-09-05T07:52:06.512Z,79.54
2018-09-05T07:53:06.476Z,79.06
2018-09-05T07:54:06.479Z,78.96
2018-09-05T07:55:06.481Z,78.96
2018-09-05T07:56:06.485Z,79.64
2018-09-05T07:57:06.487Z,79.44
2018-09-05T07:58:06.494Z,79.44
2018-09-05T07:59:06.493Z,79.58
2018-09-05T08:00:06.498Z,78.81
2018-09-05T08:01:06.503Z,78.81
2018-09-05T08:02:06.503Z,78.91
2018-09-05T08:03:06.511Z,78.91
2018-09-05T08:04:06.512Z,78.52
2018-09-05T08:05:06.516Z,78.36
2018-09-05T08:06:06.517Z,78.81
2018-09-05T08:07:06.519Z,78.27
2018-09-05T08:08:06.524Z,78.66
2018-09-05T08:09:06.526Z,79.00
2018-09-05T08:10:06.530Z,79.10
2018-09-05T08:11:06.534Z,79.39
2018-09-05T08:12:06.536Z,79.00
2018-09-05T08:13:06.541Z,78.91
2018-09-05T08:14:06.544Z,78.71
2018-09-05T08:15:06.547Z,79.14
2018-09-05T08:16:06.551Z,79.14
2018-09-05T08:17:06.552Z,78.94
2018-09-05T08:18:06.576Z,78.85
2018-09-05T08:19:06.560Z,79.33
2018-09-05T08:20:06.564Z,78.75
2018-09-05T08:21:06.568Z,79.14
2018-09-05T08:22:06.572Z,79.52
2018-09-05T08:23:06.576Z,79.52
2018-09-05T08:24:06.633Z,78.94
2018-09-05T08:25:06.588Z,78.79
2018-09-05T08:26:06.588Z,79.04
2018-09-05T08:27:06.594Z,78.99
2018-09-05T08:28:06.595Z,79.47
2018-09-05T08:29:06.663Z,79.27
2018-09-05T08:30:06.665Z,78.31
2018-09-05T08:31:06.609Z,78.34
2018-09-05T08:32:06.610Z,78.44
2018-09-05T08:33:06.614Z,77.96
2018-09-05T08:34:06.622Z,77.67
2018-09-05T08:35:06.664Z,77.32
2018-09-05T08:36:06.895Z,75.91
2018-09-05T08:37:06.818Z,75.27
2018-09-05T08:38:06.681Z,74.82
2018-09-05T08:39:06.642Z,73.35
2018-09-05T08:40:06.705Z,72.00
2018-09-05T08:41:06.686Z,69.32
2018-09-05T08:42:06.664Z,68.22
2018-09-05T08:43:06.665Z,66.50
2018-09-05T08:44:06.754Z,66.56
2018-09-05T08:45:06.851Z,65.50
2018-09-05T08:46:06.780Z,62.87
2018-09-05T08:47:06.696Z,62.51
2018-09-05T08:48:06.710Z,61.86
2018-09-05T08:49:06.715Z,60.23
2018-09-05T08:50:06.724Z,59.16
2018-09-05T08:51:06.734Z,58.22
2018-09-05T08:52:06.746Z,57.53
2018-09-05T08:53:06.754Z,56.75
2018-09-05T08:54:06.765Z,56.46
2018-09-05T08:55:06.820Z,57.99
2018-09-05T08:56:06.792Z,57.79
2018-09-05T08:57:06.801Z,58.22
2018-09-05T08:58:06.811Z,56.22
2018-09-05T08:59:06.823Z,55.12
2018-09-05T09:00:06.837Z,55.44
2018-09-05T09:01:06.848Z,54.66
2018-09-05T09:02:06.862Z,54.20
2018-09-05T09:03:07.071Z,54.00
2018-09-05T09:04:06.886Z,53.42
2018-09-05T09:05:06.944Z,55.29
2018-09-05T09:06:06.948Z,58.15
2018-09-05T09:07:06.929Z,58.18
2018-09-05T09:08:06.941Z,56.75
2018-09-05T09:09:06.956Z,58.18
2018-09-05T09:10:06.973Z,56.46
2018-09-05T09:11:06.985Z,55.97
2018-09-05T09:12:06.999Z,56.14
2018-09-05T09:13:07.015Z,56.92
2018-09-05T09:14:07.030Z,57.70
2018-09-05T09:15:07.045Z,57.24
2018-09-05T09:16:07.057Z,56.46
2018-09-05T09:17:07.074Z,56.77
2018-09-05T09:18:07.089Z,56.20
2018-09-05T09:19:07.104Z,54.95
2018-09-05T09:20:07.118Z,53.64
2018-09-05T09:21:07.133Z,53.37
2018-09-05T09:22:07.150Z,52.80
2018-09-05T09:23:07.168Z,54.00
2018-09-05T09:24:07.179Z,53.68
2018-09-05T09:25:07.195Z,53.49
2018-09-05T09:26:07.213Z,53.71
2018-09-05T09:27:07.226Z,53.88
2018-09-05T09:28:07.264Z,53.74
2018-09-05T09:29:07.258Z,52.88
2018-09-05T09:30:07.275Z,51.93
2018-09-05T09:31:07.290Z,50.46
2018-09-05T09:32:07.307Z,50.59
2018-09-05T09:33:07.325Z,50.22
2018-09-05T09:34:07.339Z,49.55
2018-09-05T09:35:07.357Z,49.07
2018-09-05T09:36:07.376Z,49.07
2018-09-05T09:37:07.387Z,48.48
2018-09-05T09:38:07.403Z,50.56
2018-09-05T09:39:07.419Z,50.76
2018-09-05T09:40:07.436Z,50.37
2018-09-05T09:41:07.455Z,50.20
2018-09-05T09:42:07.468Z,49.77
2018-09-05T09:43:07.487Z,51.29
2018-09-05T09:44:07.501Z,50.81
2018-09-05T09:45:07.518Z,52.41
2018-09-05T09:46:07.536Z,52.25
2018-09-05T09:47:07.551Z,52.00
2018-09-05T09:48:07.568Z,51.05
2018-09-05T09:49:07.585Z,50.39
2018-09-05T09:50:07.604Z,50.49
2018-09-05T09:51:07.620Z,50.07
2018-09-05T09:52:07.634Z,52.76
2018-09-05T09:53:07.651Z,51.71
2018-09-05T09:54:07.667Z,50.66
2018-09-05T09:55:07.683Z,50.10
2018-09-05T09:56:07.700Z,50.27
2018-09-05T09:57:07.717Z,50.39
2018-09-05T09:58:07.735Z,50.32
2018-09-05T09:59:07.750Z,49.29
2018-09-05T10:00:07.766Z,51.76
2018-09-05T10:01:07.782Z,52.83
2018-09-05T10:02:07.801Z,51.98
2018-09-05T10:03:07.868Z,50.76
2018-09-05T10:04:07.852Z,50.78
2018-09-05T10:05:07.850Z,50.20
2018-09-05T10:06:07.866Z,49.24
2018-09-05T10:07:07.938Z,49.19
2018-09-05T10:08:07.899Z,49.75
2018-09-05T10:09:07.915Z,49.29
2018-09-05T10:10:08.072Z,49.02
2018-09-05T10:11:07.948Z,47.57
2018-09-05T10:12:07.965Z,47.89
2018-09-05T10:13:07.982Z,47.55
2018-09-05T10:14:07.999Z,49.16
2018-09-05T10:15:08.015Z,49.51
2018-09-05T10:16:08.031Z,49.21
2018-09-05T10:17:08.110Z,49.24
2018-09-05T10:18:08.064Z,50.42
2018-09-05T10:19:08.080Z,50.54
2018-09-05T10:20:08.094Z,50.27
2018-09-05T10:21:08.176Z,48.48
2018-09-05T10:22:08.130Z,47.16
2018-09-05T10:23:08.145Z,47.60
2018-09-05T10:24:08.164Z,46.81
2018-09-05T10:25:08.177Z,47.01
2018-09-05T10:26:08.196Z,47.01
2018-09-05T10:27:08.210Z,47.01
2018-09-05T10:28:08.226Z,46.86
2018-09-05T10:29:08.246Z,46.20
2018-09-05T10:30:08.261Z,45.41
2018-09-05T10:31:08.275Z,45.80
2018-09-05T10:32:08.293Z,46.57
2018-09-05T10:33:08.310Z,50.51
2018-09-05T10:34:08.325Z,49.87
2018-09-05T10:35:08.343Z,50.17
2018-09-05T10:36:08.359Z,50.34
2018-09-05T10:37:08.375Z,49.95
2018-09-05T10:38:08.395Z,50.61
2018-09-05T10:39:08.407Z,50.22
2018-09-05T10:40:08.425Z,50.88
2018-09-05T10:41:08.440Z,51.86
2018-09-05T10:42:08.456Z,52.09
2018-09-05T10:43:08.472Z,53.58
2018-09-05T10:44:08.516Z,55.99
2018-09-05T10:45:08.505Z,56.76
2018-09-05T10:46:08.520Z,57.35
2018-09-05T10:47:08.536Z,57.54
2018-09-05T10:48:08.551Z,58.26
2018-09-05T10:49:08.567Z,59.23
2018-09-05T10:50:08.581Z,58.36
2018-09-05T10:51:08.595Z,58.36
2018-09-05T10:52:08.610Z,58.29
2018-09-05T10:53:08.624Z,57.90
2018-09-05T10:54:08.640Z,56.89
2018-09-05T10:55:08.653Z,56.30
2018-09-05T10:56:08.666Z,55.23
2018-09-05T10:57:08.680Z,56.40
2018-09-05T10:58:08.750Z,57.25
2018-09-05T10:59:08.707Z,56.09
2018-09-05T11:00:08.723Z,56.27
2018-09-05T11:01:08.734Z,57.61
2018-09-05T11:02:08.747Z,58.87
2018-09-05T11:03:08.758Z,58.59
2018-09-05T11:04:08.805Z,58.39
2018-09-05T11:05:08.787Z,58.29
2018-09-05T11:06:08.799Z,58.69
2018-09-05T11:07:08.812Z,58.17
2018-09-05T11:08:08.824Z,59.11
2018-09-05T11:09:08.836Z,59.14
2018-09-05T11:10:08.849Z,60.57
2018-09-05T11:11:08.860Z,62.23
2018-09-05T11:12:08.871Z,62.19
2018-09-05T11:13:08.885Z,61.87
2018-09-05T11:14:08.898Z,62.45
2018-09-05T11:15:08.912Z,62.00
2018-09-05T11:16:08.919Z,62.94
2018-09-05T11:17:08.931Z,63.81
2018-09-05T11:18:08.942Z,65.05
2018-09-05T11:19:08.953Z,62.65
2018-09-05T11:20:08.965Z,62.35
2018-09-05T11:21:08.982Z,62.35
2018-09-05T11:22:08.987Z,62.84
2018-09-05T11:23:08.998Z,62.35
2018-09-05T11:24:09.008Z,63.32
2018-09-05T11:25:09.020Z,61.87
2018-09-05T11:26:09.030Z,62.35
2018-09-05T11:27:09.040Z,62.97
2018-09-05T11:28:09.050Z,62.48
2018-09-05T11:29:09.114Z,62.00
2018-09-05T11:30:09.073Z,62.29
2018-09-05T11:31:09.080Z,62.87
2018-09-05T11:32:09.095Z,62.84
2018-09-05T11:33:09.101Z,62.10
2018-09-05T11:34:09.111Z,62.58
2018-09-05T11:35:09.120Z,62.19
2018-09-05T11:36:09.130Z,62.38
2018-09-05T11:37:09.141Z,61.51
2018-09-05T11:38:09.150Z,60.93
2018-09-05T11:39:09.159Z,61.41
2018-09-05T11:40:09.169Z,61.41
2018-09-05T11:41:09.178Z,61.41
2018-09-05T11:42:09.191Z,61.05
2018-09-05T11:43:09.203Z,61.32
2018-09-05T11:44:09.206Z,61.32
2018-09-05T11:45:09.217Z,60.86
2018-09-05T11:46:09.226Z,60.86
2018-09-05T11:47:09.236Z,59.99
2018-09-05T11:48:09.245Z,60.18
2018-09-05T11:49:09.253Z,59.43
2018-09-05T11:50:09.263Z,59.41
2018-09-05T11:51:09.271Z,59.43
2018-09-05T11:52:09.282Z,58.23
2018-09-05T11:53:09.292Z,58.36
2018-09-05T11:54:09.301Z,58.62
2018-09-05T11:55:09.309Z,58.31
2018-09-05T11:56:09.321Z,59.28
2018-09-05T11:57:09.329Z,58.92
2018-09-05T11:58:09.338Z,58.23
2018-09-05T11:59:09.345Z,58.62
2018-09-05T12:00:09.355Z,58.36
2018-09-05T12:01:09.365Z,57.68
2018-09-05T12:02:09.410Z,56.97
2018-09-05T12:03:09.382Z,57.49
2018-09-05T12:04:09.393Z,57.29
2018-09-05T12:05:09.403Z,57.29
2018-09-05T12:06:09.411Z,55.54
2018-09-05T12:07:09.420Z,55.25
2018-09-05T12:08:09.428Z,56.12
2018-09-05T12:09:09.439Z,56.41
2018-09-05T12:10:09.448Z,56.81
2018-09-05T12:11:09.456Z,55.54
2018-09-05T12:12:09.501Z,55.83
2018-09-05T12:13:09.476Z,55.76
2018-09-05T12:14:09.486Z,56.64
2018-09-05T12:15:09.497Z,56.61
2018-09-05T12:16:09.504Z,57.68
2018-09-05T12:17:09.514Z,57.61
2018-09-05T12:18:09.523Z,58.65
2018-09-05T12:19:09.533Z,59.53
2018-09-05T12:20:09.541Z,58.43
2018-09-05T12:21:09.552Z,57.68
2018-09-05T12:22:09.560Z,59.50
2018-09-05T12:23:09.573Z,59.11
2018-09-05T12:24:09.580Z,58.26
2018-09-05T12:25:09.591Z,57.42
2018-09-05T12:26:09.599Z,56.93
2018-09-05T12:27:09.609Z,57.71
2018-09-05T12:28:09.617Z,57.42
2018-09-05T12:29:09.630Z,56.74
2018-09-05T12:30:09.637Z,56.18
2018-09-05T12:31:09.645Z,55.30
2018-09-05T12:32:09.655Z,54.99
2018-09-05T12:33:09.664Z,54.89
2018-09-05T12:34:09.674Z,54.79
2018-09-05T12:35:09.684Z,55.60
2018-09-05T12:36:09.694Z,54.13
2018-09-05T12:37:09.703Z,53.55
2018-09-05T12:38:09.714Z,52.84
2018-09-05T12:39:09.724Z,53.65
2018-09-05T12:40:09.731Z,53.55
2018-09-05T12:41:09.742Z,53.36
2018-09-05T12:42:09.750Z,54.36
2018-09-05T12:43:09.760Z,53.97
2018-09-05T12:44:09.770Z,53.19
2018-09-05T12:45:09.780Z,52.50
2018-09-05T12:46:09.791Z,52.22
2018-09-05T12:47:09.799Z,51.73
2018-09-05T12:48:09.808Z,52.70
2018-09-05T12:49:09.818Z,52.70
2018-09-05T12:50:09.828Z,52.60
2018-09-05T12:51:09.837Z,52.99
2018-09-05T12:52:09.847Z,52.89